sensor_id;sensor_type;location;lat;lon;timestamp;P1;durP1;ratioP1;P2;durP2;ratioP2
53903;SDS011;39812;52.430;16.936;2023-07-22T00:00:31;2.83;;;1.50;;
53903;SDS011;39812;52.430;16.936;2023-07-22T00:02:57;2.53;;;1.73;;
53903;SDS011;39812;52.430;16.936;2023-07-22T00:05:22;3.35;;;1.80;;
53903;SDS011;39812;52.430;16.936;2023-07-22T00:07:51;3.50;;;1.83;;
53903;SDS011;39812;52.430;16.936;2023-07-22T00:10:17;2.53;;;1.73;;
53903;SDS011;39812;52.430;16.936;2023-07-22T00:12:43;2.15;;;1.67;;
53903;SDS011;39812;52.430;16.936;2023-07-22T00:15:09;4.30;;;1.90;;
53903;SDS011;39812;52.430;16.936;2023-07-22T00:17:38;2.78;;;2.05;;
53903;SDS011;39812;52.430;16.936;2023-07-22T00:20:05;4.03;;;1.70;;
53903;SDS011;39812;52.430;16.936;2023-07-22T00:22:34;2.78;;;2.10;;
53903;SDS011;39812;52.430;16.936;2023-07-22T00:25:00;2.63;;;1.75;;
53903;SDS011;39812;52.430;16.936;2023-07-22T00:27:27;2.25;;;1.75;;
53903;SDS011;39812;52.430;16.936;2023-07-22T00:29:52;3.83;;;2.00;;
53903;SDS011;39812;52.430;16.936;2023-07-22T00:32:18;3.88;;;2.28;;
53903;SDS011;39812;52.430;16.936;2023-07-22T00:34:43;3.28;;;2.00;;
53903;SDS011;39812;52.430;16.936;2023-07-22T00:37:09;3.60;;;2.17;;
53903;SDS011;39812;52.430;16.936;2023-07-22T00:39:34;3.83;;;2.40;;
53903;SDS011;39812;52.430;16.936;2023-07-22T00:42:00;3.72;;;2.10;;
53903;SDS011;39812;52.430;16.936;2023-07-22T00:44:26;5.20;;;2.47;;
53903;SDS011;39812;52.430;16.936;2023-07-22T00:46:54;4.05;;;2.20;;
53903;SDS011;39812;52.430;16.936;2023-07-22T00:49:20;2.63;;;2.00;;
53903;SDS011;39812;52.430;16.936;2023-07-22T00:51:47;2.83;;;2.05;;
53903;SDS011;39812;52.430;16.936;2023-07-22T00:54:13;5.10;;;2.20;;
53903;SDS011;39812;52.430;16.936;2023-07-22T00:56:39;2.90;;;2.25;;
53903;SDS011;39812;52.430;16.936;2023-07-22T00:59:06;3.40;;;2.10;;
53903;SDS011;39812;52.430;16.936;2023-07-22T01:01:32;2.85;;;2.08;;
53903;SDS011;39812;52.430;16.936;2023-07-22T01:03:58;3.97;;;2.20;;
53903;SDS011;39812;52.430;16.936;2023-07-22T01:06:23;2.88;;;1.92;;
53903;SDS011;39812;52.430;16.936;2023-07-22T01:08:49;4.03;;;2.10;;
53903;SDS011;39812;52.430;16.936;2023-07-22T01:11:15;2.88;;;2.25;;
53903;SDS011;39812;52.430;16.936;2023-07-22T01:13:41;2.45;;;1.80;;
53903;SDS011;39812;52.430;16.936;2023-07-22T01:16:07;3.65;;;2.03;;
53903;SDS011;39812;52.430;16.936;2023-07-22T01:18:33;4.03;;;2.60;;
53903;SDS011;39812;52.430;16.936;2023-07-22T01:20:59;3.55;;;2.28;;
53903;SDS011;39812;52.430;16.936;2023-07-22T01:23:25;3.92;;;2.00;;
53903;SDS011;39812;52.430;16.936;2023-07-22T01:25:50;4.70;;;2.40;;
53903;SDS011;39812;52.430;16.936;2023-07-22T01:28:17;3.67;;;2.55;;
53903;SDS011;39812;52.430;16.936;2023-07-22T01:30:42;4.22;;;2.60;;
53903;SDS011;39812;52.430;16.936;2023-07-22T01:33:08;3.60;;;2.30;;
53903;SDS011;39812;52.430;16.936;2023-07-22T01:35:34;4.18;;;2.47;;
53903;SDS011;39812;52.430;16.936;2023-07-22T01:37:59;3.45;;;2.40;;
53903;SDS011;39812;52.430;16.936;2023-07-22T01:40:25;3.40;;;2.45;;
53903;SDS011;39812;52.430;16.936;2023-07-22T01:42:51;2.58;;;2.20;;
53903;SDS011;39812;52.430;16.936;2023-07-22T01:45:16;5.05;;;2.45;;
53903;SDS011;39812;52.430;16.936;2023-07-22T01:47:42;5.43;;;2.70;;
53903;SDS011;39812;52.430;16.936;2023-07-22T01:50:08;4.75;;;2.50;;
53903;SDS011;39812;52.430;16.936;2023-07-22T01:52:35;3.65;;;2.90;;
53903;SDS011;39812;52.430;16.936;2023-07-22T01:55:01;3.45;;;2.30;;
53903;SDS011;39812;52.430;16.936;2023-07-22T01:57:30;3.45;;;2.42;;
53903;SDS011;39812;52.430;16.936;2023-07-22T01:59:56;4.20;;;2.65;;
53903;SDS011;39812;52.430;16.936;2023-07-22T02:02:22;3.88;;;2.58;;
53903;SDS011;39812;52.430;16.936;2023-07-22T02:04:47;7.35;;;2.72;;
53903;SDS011;39812;52.430;16.936;2023-07-22T02:07:13;4.53;;;2.95;;
53903;SDS011;39812;52.430;16.936;2023-07-22T02:09:38;3.47;;;2.28;;
53903;SDS011;39812;52.430;16.936;2023-07-22T02:12:04;4.78;;;3.10;;
53903;SDS011;39812;52.430;16.936;2023-07-22T02:14:32;5.55;;;3.15;;
53903;SDS011;39812;52.430;16.936;2023-07-22T02:16:58;5.05;;;3.25;;
53903;SDS011;39812;52.430;16.936;2023-07-22T02:19:24;5.20;;;2.92;;
53903;SDS011;39812;52.430;16.936;2023-07-22T02:21:49;3.45;;;2.72;;
53903;SDS011;39812;52.430;16.936;2023-07-22T02:24:15;5.78;;;3.30;;
53903;SDS011;39812;52.430;16.936;2023-07-22T02:26:41;4.88;;;2.88;;
53903;SDS011;39812;52.430;16.936;2023-07-22T02:29:07;3.80;;;3.15;;
53903;SDS011;39812;52.430;16.936;2023-07-22T02:31:32;5.05;;;3.65;;
53903;SDS011;39812;52.430;16.936;2023-07-22T02:33:58;7.70;;;3.55;;
53903;SDS011;39812;52.430;16.936;2023-07-22T02:36:24;5.40;;;3.88;;
53903;SDS011;39812;52.430;16.936;2023-07-22T02:38:50;6.55;;;4.10;;
53903;SDS011;39812;52.430;16.936;2023-07-22T02:41:15;5.78;;;3.92;;
53903;SDS011;39812;52.430;16.936;2023-07-22T02:43:41;5.32;;;3.60;;
53903;SDS011;39812;52.430;16.936;2023-07-22T02:46:06;5.50;;;3.83;;
53903;SDS011;39812;52.430;16.936;2023-07-22T02:48:33;4.93;;;3.88;;
53903;SDS011;39812;52.430;16.936;2023-07-22T02:51:05;4.85;;;3.60;;
53903;SDS011;39812;52.430;16.936;2023-07-22T02:53:32;6.35;;;3.65;;
53903;SDS011;39812;52.430;16.936;2023-07-22T02:55:59;4.85;;;3.83;;
53903;SDS011;39812;52.430;16.936;2023-07-22T02:58:25;8.10;;;4.25;;
53903;SDS011;39812;52.430;16.936;2023-07-22T03:00:51;9.10;;;4.20;;
53903;SDS011;39812;52.430;16.936;2023-07-22T03:03:16;5.78;;;3.95;;
53903;SDS011;39812;52.430;16.936;2023-07-22T03:05:44;5.63;;;3.95;;
53903;SDS011;39812;52.430;16.936;2023-07-22T03:08:09;5.50;;;4.00;;
53903;SDS011;39812;52.430;16.936;2023-07-22T03:10:35;6.43;;;4.00;;
53903;SDS011;39812;52.430;16.936;2023-07-22T03:13:00;7.53;;;4.00;;
53903;SDS011;39812;52.430;16.936;2023-07-22T03:15:28;4.78;;;3.97;;
53903;SDS011;39812;52.430;16.936;2023-07-22T03:17:54;5.43;;;4.00;;
53903;SDS011;39812;52.430;16.936;2023-07-22T03:20:20;4.68;;;3.55;;
53903;SDS011;39812;52.430;16.936;2023-07-22T03:22:47;4.70;;;3.80;;
53903;SDS011;39812;52.430;16.936;2023-07-22T03:25:14;5.47;;;3.75;;
53903;SDS011;39812;52.430;16.936;2023-07-22T03:27:42;6.38;;;3.97;;
53903;SDS011;39812;52.430;16.936;2023-07-22T03:30:10;7.03;;;3.95;;
53903;SDS011;39812;52.430;16.936;2023-07-22T03:32:40;5.50;;;3.95;;
53903;SDS011;39812;52.430;16.936;2023-07-22T03:35:08;6.13;;;3.90;;
53903;SDS011;39812;52.430;16.936;2023-07-22T03:37:37;10.15;;;4.00;;
53903;SDS011;39812;52.430;16.936;2023-07-22T03:40:03;7.00;;;4.35;;
53903;SDS011;39812;52.430;16.936;2023-07-22T03:42:51;5.90;;;4.22;;
53903;SDS011;39812;52.430;16.936;2023-07-22T03:45:18;5.55;;;4.10;;
53903;SDS011;39812;52.430;16.936;2023-07-22T03:47:44;7.05;;;4.50;;
53903;SDS011;39812;52.430;16.936;2023-07-22T03:50:11;7.78;;;4.65;;
53903;SDS011;39812;52.430;16.936;2023-07-22T03:52:37;12.00;;;5.30;;
53903;SDS011;39812;52.430;16.936;2023-07-22T03:55:03;8.18;;;4.70;;
53903;SDS011;39812;52.430;16.936;2023-07-22T03:57:30;7.88;;;5.93;;
53903;SDS011;39812;52.430;16.936;2023-07-22T03:59:56;6.32;;;4.70;;
53903;SDS011;39812;52.430;16.936;2023-07-22T04:02:23;7.57;;;5.22;;
53903;SDS011;39812;52.430;16.936;2023-07-22T04:04:53;8.80;;;5.53;;
53903;SDS011;39812;52.430;16.936;2023-07-22T04:07:19;7.22;;;5.40;;
53903;SDS011;39812;52.430;16.936;2023-07-22T04:09:46;9.80;;;5.57;;
53903;SDS011;39812;52.430;16.936;2023-07-22T04:12:12;9.45;;;5.90;;
53903;SDS011;39812;52.430;16.936;2023-07-22T04:14:38;8.00;;;5.57;;
53903;SDS011;39812;52.430;16.936;2023-07-22T04:17:04;7.97;;;5.82;;
53903;SDS011;39812;52.430;16.936;2023-07-22T04:19:30;8.45;;;6.05;;
53903;SDS011;39812;52.430;16.936;2023-07-22T04:21:55;7.50;;;5.88;;
53903;SDS011;39812;52.430;16.936;2023-07-22T04:24:21;7.75;;;5.68;;
53903;SDS011;39812;52.430;16.936;2023-07-22T04:26:47;7.38;;;5.60;;
53903;SDS011;39812;52.430;16.936;2023-07-22T04:29:13;8.63;;;6.00;;
53903;SDS011;39812;52.430;16.936;2023-07-22T04:31:39;7.25;;;5.10;;
53903;SDS011;39812;52.430;16.936;2023-07-22T04:34:05;10.73;;;5.88;;
53903;SDS011;39812;52.430;16.936;2023-07-22T04:36:31;7.97;;;4.95;;
53903;SDS011;39812;52.430;16.936;2023-07-22T04:38:57;8.38;;;5.63;;
53903;SDS011;39812;52.430;16.936;2023-07-22T04:41:22;7.32;;;5.32;;
53903;SDS011;39812;52.430;16.936;2023-07-22T04:43:49;9.68;;;5.70;;
53903;SDS011;39812;52.430;16.936;2023-07-22T04:46:15;7.20;;;5.22;;
53903;SDS011;39812;52.430;16.936;2023-07-22T04:48:41;8.27;;;4.68;;
53903;SDS011;39812;52.430;16.936;2023-07-22T04:51:07;8.73;;;5.70;;
53903;SDS011;39812;52.430;16.936;2023-07-22T04:53:32;8.52;;;5.28;;
53903;SDS011;39812;52.430;16.936;2023-07-22T04:55:58;7.82;;;5.13;;
53903;SDS011;39812;52.430;16.936;2023-07-22T04:58:24;7.35;;;5.28;;
53903;SDS011;39812;52.430;16.936;2023-07-22T05:00:50;10.38;;;5.50;;
53903;SDS011;39812;52.430;16.936;2023-07-22T05:03:16;8.23;;;5.75;;
53903;SDS011;39812;52.430;16.936;2023-07-22T05:05:43;6.65;;;5.07;;
53903;SDS011;39812;52.430;16.936;2023-07-22T05:08:08;7.80;;;5.88;;
53903;SDS011;39812;52.430;16.936;2023-07-22T05:10:34;7.47;;;5.53;;
53903;SDS011;39812;52.430;16.936;2023-07-22T05:13:01;7.90;;;5.93;;
53903;SDS011;39812;52.430;16.936;2023-07-22T05:15:27;7.30;;;5.15;;
53903;SDS011;39812;52.430;16.936;2023-07-22T05:17:52;13.38;;;5.40;;
53903;SDS011;39812;52.430;16.936;2023-07-22T05:20:18;8.63;;;5.32;;
53903;SDS011;39812;52.430;16.936;2023-07-22T05:22:44;8.32;;;5.75;;
53903;SDS011;39812;52.430;16.936;2023-07-22T05:25:09;7.10;;;5.45;;
53903;SDS011;39812;52.430;16.936;2023-07-22T05:27:35;8.38;;;5.57;;
53903;SDS011;39812;52.430;16.936;2023-07-22T05:30:01;10.55;;;5.68;;
53903;SDS011;39812;52.430;16.936;2023-07-22T05:32:28;6.95;;;5.38;;
53903;SDS011;39812;52.430;16.936;2023-07-22T05:34:54;6.18;;;4.88;;
53903;SDS011;39812;52.430;16.936;2023-07-22T05:37:21;6.22;;;4.57;;
53903;SDS011;39812;52.430;16.936;2023-07-22T05:39:47;5.88;;;4.00;;
53903;SDS011;39812;52.430;16.936;2023-07-22T05:42:12;6.10;;;4.10;;
53903;SDS011;39812;52.430;16.936;2023-07-22T05:44:38;5.85;;;4.35;;
53903;SDS011;39812;52.430;16.936;2023-07-22T05:47:04;6.10;;;4.20;;
53903;SDS011;39812;52.430;16.936;2023-07-22T05:49:30;5.70;;;4.00;;
53903;SDS011;39812;52.430;16.936;2023-07-22T05:51:55;5.93;;;4.15;;
53903;SDS011;39812;52.430;16.936;2023-07-22T05:54:21;5.43;;;4.22;;
53903;SDS011;39812;52.430;16.936;2023-07-22T05:56:47;5.15;;;4.28;;
53903;SDS011;39812;52.430;16.936;2023-07-22T05:59:12;5.60;;;4.03;;
53903;SDS011;39812;52.430;16.936;2023-07-22T06:01:38;5.78;;;4.25;;
53903;SDS011;39812;52.430;16.936;2023-07-22T06:04:04;5.70;;;4.20;;
53903;SDS011;39812;52.430;16.936;2023-07-22T06:06:30;6.07;;;4.45;;
53903;SDS011;39812;52.430;16.936;2023-07-22T06:08:56;6.50;;;4.65;;
53903;SDS011;39812;52.430;16.936;2023-07-22T06:11:22;4.93;;;4.20;;
53903;SDS011;39812;52.430;16.936;2023-07-22T06:13:47;5.55;;;4.30;;
53903;SDS011;39812;52.430;16.936;2023-07-22T06:16:13;6.20;;;4.43;;
53903;SDS011;39812;52.430;16.936;2023-07-22T06:18:39;5.57;;;4.10;;
53903;SDS011;39812;52.430;16.936;2023-07-22T06:21:05;4.20;;;3.60;;
53903;SDS011;39812;52.430;16.936;2023-07-22T06:23:30;3.60;;;3.30;;
53903;SDS011;39812;52.430;16.936;2023-07-22T06:25:56;3.95;;;3.28;;
53903;SDS011;39812;52.430;16.936;2023-07-22T06:28:22;5.28;;;3.28;;
53903;SDS011;39812;52.430;16.936;2023-07-22T06:30:47;4.00;;;3.22;;
53903;SDS011;39812;52.430;16.936;2023-07-22T06:33:13;3.58;;;2.92;;
53903;SDS011;39812;52.430;16.936;2023-07-22T06:35:39;5.75;;;3.28;;
53903;SDS011;39812;52.430;16.936;2023-07-22T06:38:04;4.95;;;3.40;;
53903;SDS011;39812;52.430;16.936;2023-07-22T06:40:30;5.13;;;3.72;;
53903;SDS011;39812;52.430;16.936;2023-07-22T06:42:55;4.60;;;3.50;;
53903;SDS011;39812;52.430;16.936;2023-07-22T06:45:21;7.25;;;3.70;;
53903;SDS011;39812;52.430;16.936;2023-07-22T06:47:46;6.72;;;3.92;;
53903;SDS011;39812;52.430;16.936;2023-07-22T06:50:12;4.95;;;4.45;;
53903;SDS011;39812;52.430;16.936;2023-07-22T06:52:38;4.72;;;4.00;;
53903;SDS011;39812;52.430;16.936;2023-07-22T06:55:04;5.28;;;4.35;;
53903;SDS011;39812;52.430;16.936;2023-07-22T06:57:30;5.68;;;4.38;;
53903;SDS011;39812;52.430;16.936;2023-07-22T06:59:56;4.75;;;3.92;;
53903;SDS011;39812;52.430;16.936;2023-07-22T07:02:23;5.05;;;3.78;;
53903;SDS011;39812;52.430;16.936;2023-07-22T07:04:49;5.25;;;4.60;;
53903;SDS011;39812;52.430;16.936;2023-07-22T07:07:15;5.38;;;4.00;;
53903;SDS011;39812;52.430;16.936;2023-07-22T07:09:41;4.47;;;3.83;;
53903;SDS011;39812;52.430;16.936;2023-07-22T07:12:07;4.47;;;3.40;;
53903;SDS011;39812;52.430;16.936;2023-07-22T07:14:33;4.45;;;3.80;;
53903;SDS011;39812;52.430;16.936;2023-07-22T07:17:00;6.25;;;3.63;;
53903;SDS011;39812;52.430;16.936;2023-07-22T07:19:26;5.28;;;4.00;;
53903;SDS011;39812;52.430;16.936;2023-07-22T07:21:52;4.95;;;4.15;;
53903;SDS011;39812;52.430;16.936;2023-07-22T07:24:18;5.45;;;3.40;;
53903;SDS011;39812;52.430;16.936;2023-07-22T07:26:44;4.40;;;3.83;;
53903;SDS011;39812;52.430;16.936;2023-07-22T07:29:09;6.68;;;4.18;;
53903;SDS011;39812;52.430;16.936;2023-07-22T07:31:37;5.35;;;3.83;;
53903;SDS011;39812;52.430;16.936;2023-07-22T07:34:02;4.43;;;3.47;;
53903;SDS011;39812;52.430;16.936;2023-07-22T07:36:28;4.05;;;3.50;;
53903;SDS011;39812;52.430;16.936;2023-07-22T07:38:54;4.25;;;3.70;;
53903;SDS011;39812;52.430;16.936;2023-07-22T07:41:20;4.43;;;3.40;;
53903;SDS011;39812;52.430;16.936;2023-07-22T07:43:46;4.53;;;3.75;;
53903;SDS011;39812;52.430;16.936;2023-07-22T07:46:20;4.18;;;3.03;;
53903;SDS011;39812;52.430;16.936;2023-07-22T07:48:51;5.05;;;3.33;;
53903;SDS011;39812;52.430;16.936;2023-07-22T07:51:18;4.22;;;3.03;;
53903;SDS011;39812;52.430;16.936;2023-07-22T07:53:45;4.78;;;2.95;;
53903;SDS011;39812;52.430;16.936;2023-07-22T07:56:12;4.80;;;3.40;;
53903;SDS011;39812;52.430;16.936;2023-07-22T07:58:38;5.22;;;3.17;;
53903;SDS011;39812;52.430;16.936;2023-07-22T08:01:04;3.47;;;2.95;;
53903;SDS011;39812;52.430;16.936;2023-07-22T08:03:32;4.68;;;2.92;;
53903;SDS011;39812;52.430;16.936;2023-07-22T08:05:58;4.43;;;2.85;;
53903;SDS011;39812;52.430;16.936;2023-07-22T08:08:24;3.03;;;2.30;;
53903;SDS011;39812;52.430;16.936;2023-07-22T08:13:34;3.83;;;2.40;;
53903;SDS011;39812;52.430;16.936;2023-07-22T08:16:04;3.08;;;2.40;;
53903;SDS011;39812;52.430;16.936;2023-07-22T08:18:31;3.83;;;2.15;;
53903;SDS011;39812;52.430;16.936;2023-07-22T08:20:58;4.10;;;2.28;;
53903;SDS011;39812;52.430;16.936;2023-07-22T08:23:24;2.60;;;2.10;;
53903;SDS011;39812;52.430;16.936;2023-07-22T08:25:49;3.55;;;2.00;;
53903;SDS011;39812;52.430;16.936;2023-07-22T08:28:15;2.90;;;2.10;;
53903;SDS011;39812;52.430;16.936;2023-07-22T08:30:41;3.05;;;1.95;;
53903;SDS011;39812;52.430;16.936;2023-07-22T08:33:10;3.53;;;2.20;;
53903;SDS011;39812;52.430;16.936;2023-07-22T08:35:37;2.35;;;2.15;;
53903;SDS011;39812;52.430;16.936;2023-07-22T08:38:03;2.72;;;1.92;;
53903;SDS011;39812;52.430;16.936;2023-07-22T08:40:39;2.25;;;1.88;;
53903;SDS011;39812;52.430;16.936;2023-07-22T08:43:07;3.25;;;2.10;;
53903;SDS011;39812;52.430;16.936;2023-07-22T08:45:35;2.00;;;1.60;;
53903;SDS011;39812;52.430;16.936;2023-07-22T08:48:05;2.45;;;1.83;;
53903;SDS011;39812;52.430;16.936;2023-07-22T08:50:44;2.55;;;1.90;;
53903;SDS011;39812;52.430;16.936;2023-07-22T08:53:12;3.90;;;1.70;;
53903;SDS011;39812;52.430;16.936;2023-07-22T08:55:38;2.65;;;1.95;;
53903;SDS011;39812;52.430;16.936;2023-07-22T08:58:08;2.17;;;1.65;;
53903;SDS011;39812;52.430;16.936;2023-07-22T09:00:34;2.95;;;1.73;;
53903;SDS011;39812;52.430;16.936;2023-07-22T09:03:01;2.65;;;1.60;;
53903;SDS011;39812;52.430;16.936;2023-07-22T09:05:27;2.78;;;1.55;;
53903;SDS011;39812;52.430;16.936;2023-07-22T09:07:54;2.20;;;1.65;;
53903;SDS011;39812;52.430;16.936;2023-07-22T09:10:21;1.83;;;1.40;;
53903;SDS011;39812;52.430;16.936;2023-07-22T09:12:49;2.67;;;1.67;;
53903;SDS011;39812;52.430;16.936;2023-07-22T09:15:16;3.45;;;1.65;;
53903;SDS011;39812;52.430;16.936;2023-07-22T09:17:43;2.35;;;1.70;;
53903;SDS011;39812;52.430;16.936;2023-07-22T09:20:09;2.45;;;1.60;;
53903;SDS011;39812;52.430;16.936;2023-07-22T09:22:42;3.83;;;1.50;;
53903;SDS011;39812;52.430;16.936;2023-07-22T09:25:16;2.67;;;1.35;;
53903;SDS011;39812;52.430;16.936;2023-07-22T09:27:50;4.80;;;1.92;;
53903;SDS011;39812;52.430;16.936;2023-07-22T09:30:23;2.42;;;1.55;;
53903;SDS011;39812;52.430;16.936;2023-07-22T09:32:55;2.28;;;1.52;;
53903;SDS011;39812;52.430;16.936;2023-07-22T09:35:25;2.63;;;1.60;;
53903;SDS011;39812;52.430;16.936;2023-07-22T09:37:53;2.72;;;1.45;;
53903;SDS011;39812;52.430;16.936;2023-07-22T09:40:20;4.57;;;1.45;;
53903;SDS011;39812;52.430;16.936;2023-07-22T09:42:51;2.70;;;1.80;;
53903;SDS011;39812;52.430;16.936;2023-07-22T09:45:22;2.72;;;1.40;;
53903;SDS011;39812;52.430;16.936;2023-07-22T09:47:50;3.88;;;1.52;;
53903;SDS011;39812;52.430;16.936;2023-07-22T09:50:17;2.17;;;1.48;;
53903;SDS011;39812;52.430;16.936;2023-07-22T09:52:48;2.05;;;1.60;;
53903;SDS011;39812;52.430;16.936;2023-07-22T09:55:15;2.35;;;1.45;;
53903;SDS011;39812;52.430;16.936;2023-07-22T09:57:55;1.63;;;1.25;;
53903;SDS011;39812;52.430;16.936;2023-07-22T10:00:28;1.98;;;1.40;;
53903;SDS011;39812;52.430;16.936;2023-07-22T10:02:56;2.15;;;1.60;;
53903;SDS011;39812;52.430;16.936;2023-07-22T10:05:22;3.45;;;1.50;;
53903;SDS011;39812;52.430;16.936;2023-07-22T10:07:50;2.03;;;1.35;;
53903;SDS011;39812;52.430;16.936;2023-07-22T10:10:17;3.45;;;1.73;;
53903;SDS011;39812;52.430;16.936;2023-07-22T10:12:45;4.88;;;1.98;;
53903;SDS011;39812;52.430;16.936;2023-07-22T10:15:12;2.95;;;1.80;;
53903;SDS011;39812;52.430;16.936;2023-07-22T10:17:40;2.53;;;1.55;;
53903;SDS011;39812;52.430;16.936;2023-07-22T10:20:07;2.20;;;1.60;;
53903;SDS011;39812;52.430;16.936;2023-07-22T10:22:41;2.58;;;2.00;;
53903;SDS011;39812;52.430;16.936;2023-07-22T10:25:09;2.17;;;1.45;;
53903;SDS011;39812;52.430;16.936;2023-07-22T10:27:46;4.20;;;1.80;;
53903;SDS011;39812;52.430;16.936;2023-07-22T10:30:13;4.00;;;1.70;;
53903;SDS011;39812;52.430;16.936;2023-07-22T10:32:41;3.45;;;1.90;;
53903;SDS011;39812;52.430;16.936;2023-07-22T10:35:21;2.67;;;2.38;;
53903;SDS011;39812;52.430;16.936;2023-07-22T10:37:49;6.13;;;1.83;;
53903;SDS011;39812;52.430;16.936;2023-07-22T10:40:29;2.90;;;1.65;;
53903;SDS011;39812;52.430;16.936;2023-07-22T10:45:30;2.33;;;1.70;;
53903;SDS011;39812;52.430;16.936;2023-07-22T10:48:01;2.33;;;1.60;;
53903;SDS011;39812;52.430;16.936;2023-07-22T10:50:51;3.22;;;1.70;;
53903;SDS011;39812;52.430;16.936;2023-07-22T10:58:30;2.58;;;1.77;;
53903;SDS011;39812;52.430;16.936;2023-07-22T11:01:00;2.08;;;1.45;;
53903;SDS011;39812;52.430;16.936;2023-07-22T11:11:52;2.55;;;1.73;;
53903;SDS011;39812;52.430;16.936;2023-07-22T11:14:22;3.13;;;1.67;;
53903;SDS011;39812;52.430;16.936;2023-07-22T11:16:48;2.38;;;1.42;;
53903;SDS011;39812;52.430;16.936;2023-07-22T11:19:15;2.75;;;1.50;;
53903;SDS011;39812;52.430;16.936;2023-07-22T11:21:41;3.47;;;1.58;;
53903;SDS011;39812;52.430;16.936;2023-07-22T11:24:08;2.35;;;1.55;;
53903;SDS011;39812;52.430;16.936;2023-07-22T11:26:34;2.72;;;1.73;;
53903;SDS011;39812;52.430;16.936;2023-07-22T11:29:00;2.33;;;1.50;;
53903;SDS011;39812;52.430;16.936;2023-07-22T11:31:30;4.55;;;1.75;;
53903;SDS011;39812;52.430;16.936;2023-07-22T11:33:56;3.83;;;2.05;;
53903;SDS011;39812;52.430;16.936;2023-07-22T11:36:22;5.07;;;2.70;;
53903;SDS011;39812;52.430;16.936;2023-07-22T11:38:48;2.80;;;1.65;;
53903;SDS011;39812;52.430;16.936;2023-07-22T11:41:14;4.25;;;1.80;;
53903;SDS011;39812;52.430;16.936;2023-07-22T11:43:40;2.40;;;1.80;;
53903;SDS011;39812;52.430;16.936;2023-07-22T11:46:06;2.70;;;1.88;;
53903;SDS011;39812;52.430;16.936;2023-07-22T11:48:32;2.03;;;1.42;;
53903;SDS011;39812;52.430;16.936;2023-07-22T11:50:59;2.42;;;1.60;;
53903;SDS011;39812;52.430;16.936;2023-07-22T11:53:28;3.83;;;2.03;;
53903;SDS011;39812;52.430;16.936;2023-07-22T11:55:55;2.67;;;1.60;;
53903;SDS011;39812;52.430;16.936;2023-07-22T11:58:24;3.00;;;2.10;;
53903;SDS011;39812;52.430;16.936;2023-07-22T12:03:33;3.40;;;1.90;;
53903;SDS011;39812;52.430;16.936;2023-07-22T12:06:03;3.90;;;2.03;;
53903;SDS011;39812;52.430;16.936;2023-07-22T12:08:29;2.00;;;1.45;;
53903;SDS011;39812;52.430;16.936;2023-07-22T12:10:56;3.15;;;1.60;;
53903;SDS011;39812;52.430;16.936;2023-07-22T12:13:22;2.35;;;1.77;;
53903;SDS011;39812;52.430;16.936;2023-07-22T12:16:01;2.30;;;1.60;;
53903;SDS011;39812;52.430;16.936;2023-07-22T12:18:27;3.90;;;1.90;;
53903;SDS011;39812;52.430;16.936;2023-07-22T12:20:53;2.33;;;1.60;;
53903;SDS011;39812;52.430;16.936;2023-07-22T12:23:19;3.47;;;2.08;;
53903;SDS011;39812;52.430;16.936;2023-07-22T12:25:46;2.95;;;1.92;;
53903;SDS011;39812;52.430;16.936;2023-07-22T12:28:12;2.30;;;1.70;;
53903;SDS011;39812;52.430;16.936;2023-07-22T12:30:38;2.70;;;2.00;;
53903;SDS011;39812;52.430;16.936;2023-07-22T12:33:04;3.35;;;1.98;;
53903;SDS011;39812;52.430;16.936;2023-07-22T12:35:29;6.40;;;2.08;;
53903;SDS011;39812;52.430;16.936;2023-07-22T12:37:55;2.50;;;1.80;;
53903;SDS011;39812;52.430;16.936;2023-07-22T12:40:21;2.67;;;1.90;;
53903;SDS011;39812;52.430;16.936;2023-07-22T12:42:46;3.55;;;1.80;;
53903;SDS011;39812;52.430;16.936;2023-07-22T12:45:12;2.90;;;1.80;;
53903;SDS011;39812;52.430;16.936;2023-07-22T12:47:38;2.70;;;1.60;;
53903;SDS011;39812;52.430;16.936;2023-07-22T12:50:04;2.85;;;1.75;;
53903;SDS011;39812;52.430;16.936;2023-07-22T12:52:32;2.88;;;1.63;;
53903;SDS011;39812;52.430;16.936;2023-07-22T12:54:58;3.08;;;1.80;;
53903;SDS011;39812;52.430;16.936;2023-07-22T12:57:23;2.55;;;1.77;;
53903;SDS011;39812;52.430;16.936;2023-07-22T12:59:49;2.50;;;1.60;;
53903;SDS011;39812;52.430;16.936;2023-07-22T13:02:16;5.68;;;1.80;;
53903;SDS011;39812;52.430;16.936;2023-07-22T13:04:42;2.17;;;1.50;;
53903;SDS011;39812;52.430;16.936;2023-07-22T13:07:09;3.92;;;1.60;;
53903;SDS011;39812;52.430;16.936;2023-07-22T13:09:34;3.33;;;1.73;;
53903;SDS011;39812;52.430;16.936;2023-07-22T13:12:00;2.70;;;1.90;;
53903;SDS011;39812;52.430;16.936;2023-07-22T13:14:26;4.00;;;1.88;;
53903;SDS011;39812;52.430;16.936;2023-07-22T13:16:52;2.47;;;1.48;;
53903;SDS011;39812;52.430;16.936;2023-07-22T13:19:18;4.28;;;1.83;;
53903;SDS011;39812;52.430;16.936;2023-07-22T13:21:44;2.50;;;1.55;;
53903;SDS011;39812;52.430;16.936;2023-07-22T13:24:10;3.10;;;1.70;;
53903;SDS011;39812;52.430;16.936;2023-07-22T13:26:35;2.92;;;1.58;;
53903;SDS011;39812;52.430;16.936;2023-07-22T13:29:01;3.65;;;1.60;;
53903;SDS011;39812;52.430;16.936;2023-07-22T13:31:27;3.65;;;1.70;;
53903;SDS011;39812;52.430;16.936;2023-07-22T13:33:53;2.97;;;1.90;;
53903;SDS011;39812;52.430;16.936;2023-07-22T13:36:19;3.97;;;1.80;;
53903;SDS011;39812;52.430;16.936;2023-07-22T13:38:45;3.35;;;1.63;;
53903;SDS011;39812;52.430;16.936;2023-07-22T13:41:11;3.33;;;1.75;;
53903;SDS011;39812;52.430;16.936;2023-07-22T13:43:37;2.47;;;1.70;;
53903;SDS011;39812;52.430;16.936;2023-07-22T13:46:03;2.92;;;1.73;;
53903;SDS011;39812;52.430;16.936;2023-07-22T13:48:29;2.78;;;1.77;;
53903;SDS011;39812;52.430;16.936;2023-07-22T13:50:55;2.72;;;1.70;;
53903;SDS011;39812;52.430;16.936;2023-07-22T13:53:20;4.53;;;1.70;;
53903;SDS011;39812;52.430;16.936;2023-07-22T13:55:46;3.30;;;1.80;;
53903;SDS011;39812;52.430;16.936;2023-07-22T13:58:11;2.13;;;1.52;;
53903;SDS011;39812;52.430;16.936;2023-07-22T14:00:37;4.03;;;1.65;;
53903;SDS011;39812;52.430;16.936;2023-07-22T14:03:03;3.35;;;1.92;;
53903;SDS011;39812;52.430;16.936;2023-07-22T14:05:28;3.10;;;1.45;;
53903;SDS011;39812;52.430;16.936;2023-07-22T14:07:54;2.70;;;1.70;;
53903;SDS011;39812;52.430;16.936;2023-07-22T14:10:20;2.78;;;1.77;;
53903;SDS011;39812;52.430;16.936;2023-07-22T14:12:45;2.30;;;1.60;;
53903;SDS011;39812;52.430;16.936;2023-07-22T14:15:12;3.17;;;1.50;;
53903;SDS011;39812;52.430;16.936;2023-07-22T14:17:37;4.20;;;1.55;;
53903;SDS011;39812;52.430;16.936;2023-07-22T14:20:04;2.88;;;1.70;;
53903;SDS011;39812;52.430;16.936;2023-07-22T14:22:31;2.10;;;1.60;;
53903;SDS011;39812;52.430;16.936;2023-07-22T14:24:57;3.08;;;2.00;;
53903;SDS011;39812;52.430;16.936;2023-07-22T14:27:23;3.40;;;1.90;;
53903;SDS011;39812;52.430;16.936;2023-07-22T14:29:48;3.47;;;2.03;;
53903;SDS011;39812;52.430;16.936;2023-07-22T14:32:14;4.38;;;1.90;;
53903;SDS011;39812;52.430;16.936;2023-07-22T14:34:41;2.25;;;1.50;;
53903;SDS011;39812;52.430;16.936;2023-07-22T14:37:07;3.35;;;1.98;;
53903;SDS011;39812;52.430;16.936;2023-07-22T14:39:32;3.28;;;1.55;;
53903;SDS011;39812;52.430;16.936;2023-07-22T14:41:58;3.17;;;1.70;;
53903;SDS011;39812;52.430;16.936;2023-07-22T14:44:24;2.97;;;2.03;;
53903;SDS011;39812;52.430;16.936;2023-07-22T14:46:50;3.28;;;1.80;;
53903;SDS011;39812;52.430;16.936;2023-07-22T14:49:15;4.78;;;2.10;;
53903;SDS011;39812;52.430;16.936;2023-07-22T14:51:41;4.03;;;2.00;;